Time;durP1;ratioP1;P1;durP2;ratioP2;P2;SDS_P1;SDS_P2;PMS_P1;PMS_P2;Temp;Humidity;BMP_temperature;BMP_pressure;BME280_temperature;BME280_humidity;BME280_pressure;Samples;Min_cycle;Max_cycle;Signal;HPM_P1;HPM_P2
2023/08/04 00:02:23;;;;;;;0.82;0.72;;;20.10;90.30;;;;;;942393;148;27936;-74
2023/08/04 00:04:49;;;;;;;1.10;0.70;;;20.10;90.40;;;;;;942803;148;27434;-74
2023/08/04 00:09:52;;;;;;;1.42;0.60;;;20.10;90.70;;;;;;955395;145;28082;-74
2023/08/04 00:12:18;;;;;;;0.50;0.50;;;20.10;90.70;;;;;;952784;147;27482;-74
2023/08/04 00:14:48;;;;;;;0.85;0.82;;;20.10;90.80;;;;;;953661;145;27337;-74
2023/08/04 00:17:14;;;;;;;1.52;0.70;;;20.00;91.00;;;;;;952385;145;27436;-74
2023/08/04 00:19:41;;;;;;;2.00;0.70;;;20.00;91.10;;;;;;953531;146;27393;-74
2023/08/04 00:22:07;;;;;;;0.70;0.70;;;20.00;91.30;;;;;;954457;146;27318;-74
2023/08/04 00:24:34;;;;;;;0.70;0.70;;;20.00;91.40;;;;;;953116;146;27335;-74
2023/08/04 00:27:00;;;;;;;0.70;0.70;;;20.00;91.60;;;;;;955787;145;27354;-74
2023/08/04 00:29:27;;;;;;;0.65;0.60;;;20.00;91.70;;;;;;952997;145;27329;-74
2023/08/04 00:31:54;;;;;;;1.02;0.93;;;20.00;91.90;;;;;;954202;145;27283;-74
2023/08/04 00:34:20;;;;;;;0.70;0.53;;;20.00;92.00;;;;;;952377;146;27415;-74
2023/08/04 00:36:47;;;;;;;1.37;0.78;;;20.00;92.20;;;;;;951973;145;27450;-74
2023/08/04 00:39:16;;;;;;;1.77;0.85;;;20.00;92.40;;;;;;953042;146;27347;-74
2023/08/04 00:41:43;;;;;;;0.98;0.72;;;20.00;92.50;;;;;;952164;146;27320;-74
2023/08/04 00:44:09;;;;;;;0.70;0.70;;;20.00;92.70;;;;;;953403;146;27418;-74
2023/08/04 00:46:36;;;;;;;1.35;0.90;;;20.00;92.90;;;;;;953115;145;27377;-74
2023/08/04 00:49:03;;;;;;;2.87;0.98;;;20.00;93.10;;;;;;954630;146;27363;-74
2023/08/04 00:51:29;;;;;;;0.75;0.75;;;20.00;93.30;;;;;;951890;146;27418;-74
2023/08/04 00:53:56;;;;;;;1.17;0.95;;;20.00;93.50;;;;;;942167;149;27327;-74
2023/08/04 00:56:22;;;;;;;0.80;0.80;;;20.00;93.70;;;;;;944857;148;27331;-74
2023/08/04 00:58:49;;;;;;;1.40;0.88;;;19.90;93.80;;;;;;942617;148;27474;-74
2023/08/04 01:01:15;;;;;;;1.67;0.85;;;20.00;94.00;;;;;;945430;148;27348;-74
2023/08/04 01:03:42;;;;;;;1.17;0.82;;;19.90;94.00;;;;;;943335;149;27413;-74
2023/08/04 01:06:11;;;;;;;1.17;1.02;;;19.90;94.10;;;;;;942910;148;27746;-74
2023/08/04 01:08:38;;;;;;;1.98;0.88;;;19.90;94.30;;;;;;950222;146;27403;-74
2023/08/04 01:11:04;;;;;;;1.10;0.98;;;19.90;94.30;;;;;;958917;146;27325;-74
2023/08/04 01:13:31;;;;;;;2.60;1.57;;;19.90;94.50;;;;;;964057;145;27468;-74
2023/08/04 01:15:58;;;;;;;1.85;0.80;;;19.90;94.70;;;;;;930129;151;27465;-74
2023/08/04 01:18:24;;;;;;;0.75;0.62;;;19.90;94.80;;;;;;961608;146;27496;-74
2023/08/04 01:20:51;;;;;;;0.85;0.68;;;19.90;95.00;;;;;;947720;148;27341;-75
2023/08/04 01:23:17;;;;;;;0.90;0.82;;;19.90;95.10;;;;;;961364;146;27345;-74
2023/08/04 01:25:44;;;;;;;0.53;0.53;;;19.90;95.30;;;;;;963449;145;27359;-74
2023/08/04 01:28:11;;;;;;;1.62;0.95;;;19.90;95.40;;;;;;962268;146;27354;-74
2023/08/04 01:30:37;;;;;;;0.65;0.65;;;19.90;95.50;;;;;;950457;149;27453;-74
2023/08/04 01:33:04;;;;;;;0.75;0.70;;;19.90;95.60;;;;;;924160;152;27399;-74
2023/08/04 01:35:30;;;;;;;1.80;0.93;;;19.90;95.70;;;;;;965100;145;27617;-74
2023/08/04 01:37:57;;;;;;;1.35;0.75;;;19.90;95.80;;;;;;962649;145;27328;-75
2023/08/04 01:40:23;;;;;;;1.25;0.70;;;19.90;96.00;;;;;;962392;145;27385;-74
2023/08/04 01:42:50;;;;;;;2.92;0.93;;;19.80;96.10;;;;;;962615;145;27359;-74
2023/08/04 01:45:17;;;;;;;0.93;0.88;;;19.80;96.20;;;;;;931722;151;27349;-74
2023/08/04 01:47:43;;;;;;;1.50;1.30;;;19.80;96.30;;;;;;962933;145;27336;-74
2023/08/04 01:50:10;;;;;;;1.32;1.10;;;19.80;96.30;;;;;;942626;150;27470;-73
2023/08/04 01:52:36;;;;;;;0.88;0.88;;;19.80;96.50;;;;;;961708;145;27355;-74
2023/08/04 01:55:03;;;;;;;2.77;1.10;;;19.80;97.00;;;;;;943191;150;27354;-75
2023/08/04 01:57:30;;;;;;;0.90;0.90;;;19.80;96.80;;;;;;962158;145;27421;-74
2023/08/04 01:59:56;;;;;;;1.75;1.30;;;19.80;96.80;;;;;;963946;145;27352;-74
2023/08/04 02:02:23;;;;;;;2.17;1.00;;;19.70;96.80;;;;;;962169;145;27416;-74
2023/08/04 02:04:49;;;;;;;2.33;1.00;;;19.70;96.90;;;;;;962873;145;27339;-74
2023/08/04 02:07:16;;;;;;;1.82;1.00;;;19.70;97.10;;;;;;962212;145;27370;-73
2023/08/04 02:09:43;;;;;;;2.50;1.02;;;19.70;97.20;;;;;;960507;145;27424;-74
2023/08/04 02:12:09;;;;;;;1.92;1.40;;;19.70;97.30;;;;;;959873;146;27484;-74
2023/08/04 02:14:36;;;;;;;1.40;1.07;;;19.60;97.40;;;;;;963024;145;27387;-74
2023/08/04 02:17:02;;;;;;;1.10;1.05;;;19.60;97.60;;;;;;964887;145;27358;-74
2023/08/04 02:19:29;;;;;;;3.05;1.32;;;19.60;97.70;;;;;;928276;151;27396;-75
2023/08/04 02:21:55;;;;;;;1.10;0.90;;;19.60;97.80;;;;;;960944;145;27405;-74
2023/08/04 02:24:22;;;;;;;2.20;1.05;;;19.60;97.80;;;;;;962981;145;27460;-75
2023/08/04 02:26:49;;;;;;;1.10;1.00;;;19.60;97.90;;;;;;960335;145;27312;-74
2023/08/04 02:29:15;;;;;;;1.92;1.07;;;19.60;98.10;;;;;;962636;145;27364;-73
2023/08/04 02:31:42;;;;;;;2.20;1.12;;;19.60;98.20;;;;;;962297;145;27340;-74
2023/08/04 02:34:08;;;;;;;1.12;0.98;;;19.50;98.30;;;;;;961909;145;27342;-74
2023/08/04 02:36:35;;;;;;;1.87;1.20;;;19.50;98.30;;;;;;961681;145;27780;-74
2023/08/04 02:39:02;;;;;;;2.98;1.17;;;19.50;98.50;;;;;;961287;145;27305;-73
2023/08/04 02:41:28;;;;;;;2.55;1.42;;;19.50;98.70;;;;;;960333;145;27375;-73
2023/08/04 02:43:55;;;;;;;1.72;1.30;;;19.50;98.90;;;;;;958425;144;27408;-74
2023/08/04 02:46:25;;;;;;;1.42;1.32;;;19.50;99.00;;;;;;961436;145;27323;-73
2023/08/04 02:48:48;;;;;;;1.98;1.40;;;19.50;99.10;;;;;;962314;144;27448;-74
2023/08/04 02:51:15;;;;;;;1.12;1.02;;;19.50;99.30;;;;;;962101;145;27439;-74
2023/08/04 02:53:41;;;;;;;1.20;1.10;;;19.50;99.30;;;;;;962291;145;27421;-74
2023/08/04 02:56:11;;;;;;;1.12;1.07;;;19.50;99.40;;;;;;961413;144;27362;-74
2023/08/04 02:58:37;;;;;;;2.12;1.20;;;19.50;99.50;;;;;;961190;145;27441;-74
2023/08/04 03:01:04;;;;;;;1.67;0.98;;;19.50;99.60;;;;;;961965;144;27495;-73
2023/08/04 03:03:30;;;;;;;1.10;1.10;;;19.50;99.70;;;;;;962873;145;27344;-73
2023/08/04 03:05:59;;;;;;;2.47;1.05;;;19.50;99.70;;;;;;960747;145;27608;-74
2023/08/04 03:08:23;;;;;;;1.35;1.15;;;19.50;99.80;;;;;;961058;147;27382;-74
2023/08/04 03:10:50;;;;;;;1.57;1.32;;;19.40;99.80;;;;;;963222;145;27344;-73
2023/08/04 03:13:17;;;;;;;1.60;1.50;;;19.40;99.90;;;;;;960329;145;27411;-73
2023/08/04 03:15:43;;;;;;;1.47;1.40;;;19.40;99.90;;;;;;960724;145;27412;-74
2023/08/04 03:18:10;;;;;;;1.50;1.40;;;19.40;99.90;;;;;;963428;145;27356;-74
2023/08/04 03:20:36;;;;;;;1.57;1.47;;;19.40;99.90;;;;;;958801;147;27360;-73
2023/08/04 03:23:03;;;;;;;2.17;1.62;;;19.40;99.90;;;;;;962137;147;27328;-73
2023/08/04 03:25:30;;;;;;;3.05;1.70;;;19.40;99.90;;;;;;961527;144;27265;-74
2023/08/04 03:27:56;;;;;;;2.65;1.67;;;19.40;99.90;;;;;;966189;145;27418;-74
2023/08/04 03:30:23;;;;;;;1.95;1.30;;;19.30;99.90;;;;;;960889;145;27378;-73
2023/08/04 03:32:49;;;;;;;1.60;1.50;;;19.30;99.90;;;;;;962700;145;27304;-74
2023/08/04 03:35:16;;;;;;;2.02;1.70;;;19.30;99.90;;;;;;960952;145;27422;-74
2023/08/04 03:37:42;;;;;;;2.80;1.75;;;19.30;99.90;;;;;;962537;144;27829;-74
2023/08/04 03:40:09;;;;;;;1.98;1.80;;;19.30;99.90;;;;;;962467;145;27766;-74
2023/08/04 03:42:38;;;;;;;1.82;1.62;;;19.30;99.90;;;;;;961345;145;27450;-72
2023/08/04 03:45:08;;;;;;;1.72;1.60;;;19.30;99.90;;;;;;948834;148;27429;-74
2023/08/04 03:47:37;;;;;;;1.60;1.50;;;19.30;99.90;;;;;;961483;145;27340;-74
2023/08/04 03:50:04;;;;;;;2.17;1.42;;;19.20;99.90;;;;;;965004;145;27400;-74
2023/08/04 03:52:31;;;;;;;1.70;1.60;;;19.20;99.90;;;;;;962429;145;27330;-73
2023/08/04 03:54:57;;;;;;;2.25;1.87;;;19.20;99.90;;;;;;962601;145;27327;-71
2023/08/04 03:57:24;;;;;;;1.70;1.60;;;19.20;99.90;;;;;;962353;145;27332;-72
2023/08/04 03:59:50;;;;;;;2.47;2.27;;;19.10;99.90;;;;;;961149;147;27331;-73
2023/08/04 04:02:17;;;;;;;2.60;1.98;;;19.20;99.90;;;;;;961618;145;27370;-74
2023/08/04 04:04:43;;;;;;;3.12;2.22;;;19.10;99.90;;;;;;959342;147;27465;-71
2023/08/04 04:07:10;;;;;;;2.08;1.98;;;19.10;99.90;;;;;;962238;145;27417;-72
2023/08/04 04:09:37;;;;;;;2.75;2.30;;;19.00;99.90;;;;;;962450;145;27390;-73
2023/08/04 04:12:03;;;;;;;1.92;1.80;;;19.00;99.90;;;;;;962169;145;27446;-74
2023/08/04 04:14:30;;;;;;;1.90;1.70;;;18.90;99.90;;;;;;955399;147;27384;-74
2023/08/04 04:16:56;;;;;;;1.70;1.60;;;18.90;99.90;;;;;;952265;147;27451;-72
2023/08/04 04:19:23;;;;;;;1.62;1.52;;;18.80;99.90;;;;;;950856;147;27422;-72
2023/08/04 04:21:50;;;;;;;2.20;1.77;;;18.70;99.90;;;;;;954386;147;27387;-71
2023/08/04 04:24:16;;;;;;;1.55;1.45;;;18.70;99.90;;;;;;952508;148;27441;-74
2023/08/04 04:26:43;;;;;;;1.52;1.40;;;18.60;99.90;;;;;;951533;147;27681;-72
2023/08/04 04:29:09;;;;;;;1.57;1.47;;;18.60;99.90;;;;;;952332;147;27349;-71
2023/08/04 04:31:37;;;;;;;1.75;1.65;;;18.50;99.90;;;;;;925411;152;27503;-71
2023/08/04 04:34:03;;;;;;;3.50;2.17;;;18.50;99.90;;;;;;948398;150;27337;-73
2023/08/04 04:36:29;;;;;;;3.70;2.95;;;18.50;99.90;;;;;;948133;149;27722;-71
2023/08/04 04:38:56;;;;;;;2.87;2.10;;;18.50;99.90;;;;;;946853;148;27368;-71
2023/08/04 04:41:22;;;;;;;2.55;2.35;;;18.40;99.90;;;;;;947877;150;27325;-72
2023/08/04 04:43:49;;;;;;;2.22;1.60;;;18.40;99.90;;;;;;948396;149;27786;-73
2023/08/04 04:46:16;;;;;;;2.22;2.02;;;18.40;99.90;;;;;;947881;149;27392;-71
2023/08/04 04:48:42;;;;;;;1.98;1.87;;;18.40;99.90;;;;;;953646;147;27391;-73
2023/08/04 04:51:09;;;;;;;1.82;1.72;;;18.40;99.90;;;;;;951919;146;27820;-72
2023/08/04 04:53:35;;;;;;;2.08;1.90;;;18.40;99.90;;;;;;954350;146;27346;-73
2023/08/04 04:56:02;;;;;;;1.80;1.70;;;18.40;99.90;;;;;;951298;146;27379;-73
2023/08/04 04:58:29;;;;;;;2.17;1.98;;;18.40;99.90;;;;;;953190;146;27391;-73
2023/08/04 05:01:04;;;;;;;3.47;2.10;;;18.40;99.90;;;;;;951496;146;27340;-73
2023/08/04 05:03:31;;;;;;;2.55;2.35;;;18.40;99.90;;;;;;954996;146;27338;-73
2023/08/04 05:05:57;;;;;;;2.80;2.60;;;18.40;99.90;;;;;;952172;146;27494;-74
2023/08/04 05:08:24;;;;;;;3.33;2.75;;;18.40;99.90;;;;;;951955;147;27441;-74
2023/08/04 05:10:53;;;;;;;2.95;2.60;;;18.50;99.90;;;;;;954233;146;27412;-73
2023/08/04 05:13:20;;;;;;;2.50;1.90;;;18.50;99.90;;;;;;951910;148;27359;-74
2023/08/04 05:15:46;;;;;;;2.87;1.92;;;18.50;99.90;;;;;;962108;145;27480;-74
2023/08/04 05:18:13;;;;;;;2.25;2.05;;;18.50;99.90;;;;;;961595;145;27327;-74
2023/08/04 05:20:39;;;;;;;2.10;1.90;;;18.50;99.90;;;;;;963315;144;27317;-76
2023/08/04 05:23:06;;;;;;;1.85;1.75;;;18.50;99.90;;;;;;961995;145;27353;-76
2023/08/04 05:25:33;;;;;;;2.40;2.20;;;18.50;99.90;;;;;;960576;145;27362;-76
2023/08/04 05:27:59;;;;;;;2.20;2.00;;;18.50;99.90;;;;;;961460;145;27382;-76
2023/08/04 05:30:26;;;;;;;2.70;2.20;;;18.50;99.90;;;;;;958221;145;27312;-77
2023/08/04 05:32:52;;;;;;;3.30;2.02;;;18.50;99.90;;;;;;963958;144;27449;-76
2023/08/04 05:35:19;;;;;;;2.05;1.77;;;18.60;99.90;;;;;;961483;145;27351;-77
2023/08/04 05:37:45;;;;;;;2.65;1.95;;;18.50;99.90;;;;;;963509;145;27393;-76
2023/08/04 05:40:12;;;;;;;1.90;1.77;;;18.60;99.90;;;;;;934283;151;27833;-76
2023/08/04 05:42:39;;;;;;;2.47;2.00;;;18.60;99.90;;;;;;961661;145;27300;-76
2023/08/04 05:45:07;;;;;;;2.90;2.20;;;18.70;99.90;;;;;;963319;145;27447;-74
2023/08/04 05:47:32;;;;;;;2.10;2.00;;;18.70;99.90;;;;;;962374;145;27345;-74
2023/08/04 05:49:58;;;;;;;2.33;2.10;;;18.70;99.90;;;;;;960166;147;27556;-74
2023/08/04 05:52:25;;;;;;;1.65;1.55;;;18.70;99.90;;;;;;961708;145;27423;-74
2023/08/04 05:54:52;;;;;;;2.58;1.72;;;18.80;99.90;;;;;;960526;145;27857;-74
2023/08/04 05:57:18;;;;;;;2.58;2.35;;;18.80;99.90;;;;;;962110;145;28738;-74
2023/08/04 05:59:45;;;;;;;2.10;2.00;;;18.80;99.90;;;;;;960854;145;27344;-74
2023/08/04 06:02:11;;;;;;;2.10;1.90;;;18.90;99.90;;;;;;961467;144;27417;-74
2023/08/04 06:04:38;;;;;;;2.00;1.90;;;18.90;99.90;;;;;;961770;145;27438;-74
2023/08/04 06:07:05;;;;;;;3.58;2.52;;;19.00;99.90;;;;;;962482;145;27429;-74
2023/08/04 06:09:31;;;;;;;2.72;2.52;;;19.00;99.90;;;;;;960562;145;27454;-74
2023/08/04 06:11:58;;;;;;;2.60;2.40;;;19.00;99.90;;;;;;962333;144;27402;-75
2023/08/04 06:14:24;;;;;;;3.35;2.15;;;19.10;99.90;;;;;;963977;144;27320;-74
2023/08/04 06:16:51;;;;;;;2.10;1.98;;;19.10;99.90;;;;;;963831;145;27462;-74
2023/08/04 06:19:17;;;;;;;2.60;2.40;;;19.10;99.90;;;;;;961825;145;27420;-74
2023/08/04 06:21:44;;;;;;;2.80;2.35;;;19.20;99.90;;;;;;962599;145;27347;-75
2023/08/04 06:24:11;;;;;;;2.17;2.08;;;19.20;99.90;;;;;;964619;145;27443;-74
2023/08/04 06:26:37;;;;;;;2.30;2.10;;;19.30;99.90;;;;;;960860;145;27389;-74
2023/08/04 06:29:04;;;;;;;2.30;1.90;;;19.30;99.90;;;;;;963169;145;27346;-74
2023/08/04 06:31:30;;;;;;;1.70;1.60;;;19.30;99.90;;;;;;963869;145;27328;-74
2023/08/04 06:33:57;;;;;;;2.30;2.08;;;19.40;99.90;;;;;;962139;145;28966;-74
2023/08/04 06:36:24;;;;;;;2.00;1.90;;;19.40;99.90;;;;;;961035;145;27351;-74
2023/08/04 06:38:50;;;;;;;2.20;2.00;;;19.40;99.90;;;;;;961701;144;27334;-74
2023/08/04 06:41:17;;;;;;;3.62;2.27;;;19.40;99.90;;;;;;964056;145;27404;-75
2023/08/04 06:43:43;;;;;;;2.20;2.10;;;19.40;99.90;;;;;;963567;145;27358;-74
2023/08/04 06:46:10;;;;;;;3.27;2.98;;;19.40;99.90;;;;;;962205;145;27360;-74
2023/08/04 06:48:37;;;;;;;3.10;2.90;;;19.40;99.90;;;;;;964008;145;27288;-75
2023/08/04 06:51:03;;;;;;;3.80;3.35;;;19.40;99.90;;;;;;961683;145;27342;-74
2023/08/04 06:53:30;;;;;;;3.15;2.85;;;19.40;99.90;;;;;;961877;145;27404;-74
2023/08/04 06:55:56;;;;;;;2.95;2.60;;;19.40;99.90;;;;;;962995;145;27340;-74
2023/08/04 06:58:23;;;;;;;3.20;2.83;;;19.50;99.90;;;;;;964620;145;27335;-75
2023/08/04 07:00:50;;;;;;;2.98;2.65;;;19.50;99.90;;;;;;962903;144;27344;-74
2023/08/04 07:03:16;;;;;;;2.75;2.55;;;19.50;99.90;;;;;;961790;145;27351;-75
2023/08/04 07:05:43;;;;;;;2.83;2.50;;;19.60;99.90;;;;;;960318;144;27411;-74
2023/08/04 07:08:09;;;;;;;3.42;2.27;;;19.60;99.90;;;;;;961161;144;27488;-75
2023/08/04 07:10:36;;;;;;;3.15;2.77;;;19.60;99.90;;;;;;963775;146;27345;-75
2023/08/04 07:13:02;;;;;;;3.72;3.15;;;19.70;99.90;;;;;;963952;145;27330;-75
2023/08/04 07:15:29;;;;;;;3.98;3.08;;;19.70;99.90;;;;;;962159;145;27371;-74
2023/08/04 07:17:56;;;;;;;3.22;2.80;;;19.70;99.90;;;;;;952287;147;27454;-74
2023/08/04 07:20:22;;;;;;;2.70;2.50;;;19.70;99.90;;;;;;953933;147;27333;-72
2023/08/04 07:22:49;;;;;;;3.62;2.77;;;19.70;99.90;;;;;;955137;146;27446;-73
2023/08/04 07:25:15;;;;;;;3.35;3.05;;;19.80;99.90;;;;;;951845;147;27330;-73
2023/08/04 07:27:43;;;;;;;3.17;2.83;;;19.80;99.90;;;;;;953276;146;27347;-73
2023/08/04 07:30:09;;;;;;;2.70;2.58;;;19.80;99.90;;;;;;951806;146;27445;-73
2023/08/04 07:32:35;;;;;;;3.00;2.80;;;19.80;99.90;;;;;;952353;146;27450;-74
2023/08/04 07:35:02;;;;;;;4.78;2.67;;;19.80;99.90;;;;;;950711;147;27464;-73
2023/08/04 07:37:31;;;;;;;3.20;2.55;;;19.90;99.90;;;;;;954081;147;27337;-73
2023/08/04 07:39:57;;;;;;;3.02;2.65;;;19.90;99.90;;;;;;953318;147;27310;-73
2023/08/04 07:42:25;;;;;;;2.98;2.65;;;19.90;99.90;;;;;;952624;147;27346;-74
2023/08/04 07:44:51;;;;;;;2.30;2.10;;;20.00;99.90;;;;;;952178;147;27786;-72
2023/08/04 07:47:17;;;;;;;2.58;2.37;;;20.00;99.90;;;;;;954216;147;27690;-72
2023/08/04 07:49:44;;;;;;;2.22;2.12;;;20.10;99.90;;;;;;953544;147;27338;-73
2023/08/04 07:52:10;;;;;;;3.58;2.50;;;20.10;99.90;;;;;;953943;147;27341;-73
2023/08/04 07:54:37;;;;;;;2.70;2.50;;;20.10;99.90;;;;;;953246;147;27730;-74
2023/08/04 07:57:03;;;;;;;3.90;2.58;;;20.20;99.90;;;;;;953983;147;27453;-74
2023/08/04 07:59:30;;;;;;;2.45;2.25;;;20.20;99.90;;;;;;953936;146;27624;-74
2023/08/04 08:01:57;;;;;;;2.62;2.42;;;20.30;99.90;;;;;;951980;146;27387;-73
2023/08/04 08:04:23;;;;;;;2.42;2.22;;;20.30;99.90;;;;;;952945;147;27334;-74
2023/08/04 08:06:50;;;;;;;2.25;2.15;;;20.30;99.90;;;;;;953742;147;27520;-72
2023/08/04 08:09:16;;;;;;;3.10;2.90;;;20.40;99.90;;;;;;952345;148;27338;-71
2023/08/04 08:11:43;;;;;;;2.85;2.62;;;20.40;99.90;;;;;;954442;147;27354;-74
2023/08/04 08:14:10;;;;;;;2.98;2.70;;;20.50;99.90;;;;;;956312;147;27348;-74
2023/08/04 08:16:36;;;;;;;2.98;2.70;;;20.60;99.90;;;;;;956606;147;27407;-74
2023/08/04 08:19:03;;;;;;;3.65;3.35;;;20.60;99.90;;;;;;961946;147;27352;-71
2023/08/04 08:21:30;;;;;;;3.58;2.60;;;20.70;99.90;;;;;;960919;145;27313;-72
2023/08/04 08:23:56;;;;;;;3.75;2.90;;;20.70;99.90;;;;;;961040;145;27914;-72
2023/08/04 08:26:23;;;;;;;3.27;2.98;;;20.70;99.90;;;;;;963912;145;27307;-74
2023/08/04 08:28:49;;;;;;;3.90;3.50;;;20.80;99.90;;;;;;961935;144;27336;-74
2023/08/04 08:31:16;;;;;;;2.90;2.70;;;20.80;99.90;;;;;;962702;145;28674;-73
2023/08/04 08:33:42;;;;;;;3.75;3.45;;;20.90;99.90;;;;;;961053;147;27332;-74
2023/08/04 08:36:09;;;;;;;3.33;3.12;;;20.90;99.90;;;;;;963270;145;27751;-73
2023/08/04 08:38:35;;;;;;;3.30;3.00;;;21.00;99.90;;;;;;963535;145;27366;-73
2023/08/04 08:41:02;;;;;;;3.45;3.17;;;21.00;99.90;;;;;;962123;147;27675;-73
2023/08/04 08:43:29;;;;;;;4.33;3.20;;;21.10;99.90;;;;;;963272;145;27339;-73
2023/08/04 08:45:55;;;;;;;3.55;3.25;;;21.10;99.90;;;;;;961237;146;27327;-73
2023/08/04 08:48:22;;;;;;;3.77;3.47;;;21.20;99.90;;;;;;962521;145;27319;-73
2023/08/04 08:50:48;;;;;;;4.70;3.52;;;21.30;99.90;;;;;;962168;144;27363;-73
2023/08/04 08:53:16;;;;;;;3.35;3.05;;;21.40;99.90;;;;;;961561;145;27394;-74
2023/08/04 08:55:42;;;;;;;4.17;3.50;;;21.50;99.90;;;;;;960305;145;27298;-73
2023/08/04 08:58:08;;;;;;;3.35;3.15;;;21.60;99.90;;;;;;960853;147;27463;-74
2023/08/04 09:00:35;;;;;;;3.83;3.42;;;21.70;99.90;;;;;;960571;145;27341;-76
2023/08/04 09:03:01;;;;;;;3.80;3.50;;;21.90;99.90;;;;;;961309;145;27456;-73
2023/08/04 09:05:28;;;;;;;4.20;3.65;;;22.00;99.90;;;;;;962565;145;27335;-74
2023/08/04 09:07:55;;;;;;;5.35;3.72;;;22.20;99.90;;;;;;962700;145;27485;-74
2023/08/04 09:10:21;;;;;;;3.90;3.50;;;22.40;99.90;;;;;;961781;145;27423;-74
2023/08/04 09:12:48;;;;;;;3.47;3.27;;;22.50;99.90;;;;;;962323;145;27460;-73
2023/08/04 09:15:14;;;;;;;4.33;3.65;;;22.70;99.90;;;;;;962200;145;27305;-74
2023/08/04 09:17:41;;;;;;;3.40;3.20;;;22.90;99.90;;;;;;961871;145;27476;-74
2023/08/04 09:20:08;;;;;;;4.15;3.60;;;23.20;99.90;;;;;;961444;145;27333;-74
2023/08/04 09:22:40;;;;;;;4.42;4.03;;;23.40;99.90;;;;;;961081;145;27333;-74
2023/08/04 09:25:07;;;;;;;3.35;3.15;;;23.70;99.90;;;;;;960955;145;27363;-74
2023/08/04 09:27:37;;;;;;;3.17;2.85;;;24.00;99.90;;;;;;962729;145;27424;-74
2023/08/04 09:30:02;;;;;;;3.42;3.12;;;24.30;99.90;;;;;;961712;145;27305;-74
2023/08/04 09:32:29;;;;;;;2.87;2.67;;;24.50;99.80;;;;;;962050;144;27365;-74
2023/08/04 09:35:01;;;;;;;3.10;2.90;;;24.70;98.20;;;;;;962729;144;28494;-74
2023/08/04 09:37:28;;;;;;;2.85;2.65;;;24.80;96.60;;;;;;961891;145;27871;-75
2023/08/04 09:39:54;;;;;;;4.78;3.27;;;24.90;95.40;;;;;;961265;144;27410;-72
2023/08/04 09:42:21;;;;;;;3.08;2.52;;;24.90;95.00;;;;;;965939;145;27398;-73
2023/08/04 09:44:53;;;;;;;2.98;2.77;;;24.90;94.60;;;;;;965001;145;27310;-73
2023/08/04 09:47:26;;;;;;;3.70;3.37;;;24.90;95.30;;;;;;962979;144;27398;-75
2023/08/04 09:49:53;;;;;;;3.72;3.17;;;25.00;95.70;;;;;;962988;147;27441;-73
2023/08/04 09:52:27;;;;;;;3.55;3.20;;;25.20;95.10;;;;;;963334;145;27415;-73
2023/08/04 09:54:52;;;;;;;3.40;3.10;;;25.20;94.60;;;;;;961609;145;27448;-72
2023/08/04 09:57:18;;;;;;;3.25;2.95;;;25.30;94.00;;;;;;961444;144;27317;-75
2023/08/04 09:59:45;;;;;;;3.37;3.08;;;25.40;92.80;;;;;;962268;145;27345;-72
2023/08/04 10:02:13;;;;;;;3.47;3.17;;;25.50;91.90;;;;;;961556;144;27487;-73
2023/08/04 10:04:38;;;;;;;3.55;3.10;;;25.60;91.40;;;;;;961027;145;27250;-73
2023/08/04 10:07:05;;;;;;;3.60;3.30;;;25.60;90.80;;;;;;963426;145;27851;-72
2023/08/04 10:09:32;;;;;;;4.08;3.67;;;25.70;90.20;;;;;;961396;145;27474;-75
2023/08/04 10:11:58;;;;;;;3.98;3.67;;;25.80;89.90;;;;;;960420;144;27371;-73
2023/08/04 10:14:24;;;;;;;3.98;3.62;;;25.80;91.10;;;;;;960461;145;27408;-73
2023/08/04 10:16:51;;;;;;;3.60;3.30;;;25.90;91.80;;;;;;962182;145;27333;-73
2023/08/04 10:19:23;;;;;;;4.30;3.55;;;26.10;92.70;;;;;;961560;145;27306;-74
2023/08/04 10:21:44;;;;;;;4.22;3.83;;;26.20;93.90;;;;;;959948;145;27480;-74
2023/08/04 10:24:11;;;;;;;3.90;3.55;;;26.40;92.60;;;;;;961778;147;27697;-73
2023/08/04 10:26:49;;;;;;;4.08;3.75;;;26.60;90.90;;;;;;961483;146;27355;-72
2023/08/04 10:29:16;;;;;;;3.72;3.42;;;26.70;90.00;;;;;;960433;145;27397;-72
2023/08/04 10:31:50;;;;;;;4.05;3.72;;;26.90;90.00;;;;;;960499;145;27359;-74
2023/08/04 10:34:15;;;;;;;3.85;3.60;;;27.00;88.80;;;;;;949351;148;27497;-73
2023/08/04 10:37:12;;;;;;;5.33;3.02;;;27.10;85.80;;;;;;961233;144;27320;-73
2023/08/04 10:39:41;;;;;;;3.10;2.87;;;27.20;82.80;;;;;;960718;147;27308;-73
2023/08/04 10:42:14;;;;;;;2.92;2.70;;;27.20;80.60;;;;;;960877;144;27334;-73
2023/08/04 10:45:04;;;;;;;3.37;3.02;;;27.10;78.70;;;;;;962463;145;27370;-73
2023/08/04 10:47:36;;;;;;;3.92;3.50;;;27.10;77.90;;;;;;960400;145;27346;-73
2023/08/04 10:50:05;;;;;;;4.45;3.58;;;26.90;78.20;;;;;;963353;145;27309;-74
2023/08/04 10:52:29;;;;;;;4.47;3.58;;;26.80;78.20;;;;;;960456;144;27473;-74
2023/08/04 10:54:56;;;;;;;3.55;3.25;;;26.60;77.90;;;;;;959399;145;27361;-74
2023/08/04 10:57:22;;;;;;;3.77;3.47;;;26.50;78.40;;;;;;963318;145;27310;-74
2023/08/04 10:59:49;;;;;;;3.98;3.60;;;26.40;79.00;;;;;;959845;145;27347;-74
2023/08/04 11:02:21;;;;;;;4.87;4.47;;;26.30;79.50;;;;;;962483;144;27367;-74
2023/08/04 11:04:48;;;;;;;4.17;3.87;;;26.20;80.00;;;;;;933001;150;27933;-74
2023/08/04 11:07:15;;;;;;;4.37;3.70;;;26.20;79.90;;;;;;963538;145;27290;-74
2023/08/04 11:09:41;;;;;;;4.22;3.83;;;26.20;80.20;;;;;;964862;145;27427;-75
2023/08/04 11:12:07;;;;;;;4.35;3.60;;;26.30;80.60;;;;;;964023;145;27341;-75
2023/08/04 11:14:34;;;;;;;5.35;3.75;;;26.40;80.70;;;;;;962383;147;27409;-74
2023/08/04 11:17:01;;;;;;;4.15;3.60;;;26.50;80.50;;;;;;961866;144;27299;-74
2023/08/04 11:19:30;;;;;;;3.90;3.60;;;26.60;79.70;;;;;;955237;147;27380;-74
2023/08/04 11:21:57;;;;;;;3.67;3.25;;;26.70;79.60;;;;;;952354;147;27443;-74
2023/08/04 11:24:24;;;;;;;3.85;3.52;;;26.90;79.40;;;;;;951372;148;27418;-75
2023/08/04 11:26:50;;;;;;;3.40;3.10;;;27.00;79.10;;;;;;951198;146;27340;-74
2023/08/04 11:29:16;;;;;;;3.95;3.33;;;27.10;78.00;;;;;;951692;147;27435;-74
2023/08/04 11:31:43;;;;;;;3.65;3.12;;;27.20;77.00;;;;;;955174;146;27359;-75
2023/08/04 11:34:13;;;;;;;3.05;2.75;;;27.30;76.30;;;;;;952500;147;27444;-74
2023/08/04 11:36:42;;;;;;;3.33;2.62;;;27.40;75.00;;;;;;954239;146;27368;-74
2023/08/04 11:39:08;;;;;;;3.00;2.80;;;27.40;74.50;;;;;;952625;147;27361;-74
2023/08/04 11:41:35;;;;;;;3.00;2.80;;;27.30;73.80;;;;;;952695;147;27318;-74
2023/08/04 11:44:02;;;;;;;3.50;2.75;;;27.20;73.20;;;;;;953210;146;27330;-74
2023/08/04 11:46:28;;;;;;;3.58;3.00;;;27.00;72.80;;;;;;953738;146;27333;-74
2023/08/04 11:48:55;;;;;;;3.60;2.77;;;26.70;72.50;;;;;;951207;146;27408;-74
2023/08/04 11:51:21;;;;;;;2.77;2.58;;;26.50;72.50;;;;;;952878;148;27466;-74
2023/08/04 11:53:48;;;;;;;3.17;2.87;;;26.20;73.10;;;;;;953080;147;27315;-74
2023/08/04 11:56:14;;;;;;;3.50;2.87;;;25.90;73.60;;;;;;949730;148;27282;-74
2023/08/04 11:58:43;;;;;;;4.03;3.08;;;25.70;74.80;;;;;;950477;148;27314;-73
2023/08/04 12:01:08;;;;;;;3.55;3.05;;;25.40;75.00;;;;;;953681;147;27350;-73
2023/08/04 12:03:46;;;;;;;3.98;2.90;;;25.20;75.80;;;;;;948575;147;27667;-73
2023/08/04 12:06:13;;;;;;;3.90;3.50;;;25.00;76.50;;;;;;952394;146;27431;-73
2023/08/04 12:08:39;;;;;;;2.92;2.60;;;24.90;77.60;;;;;;950568;147;27424;-74
2023/08/04 12:11:06;;;;;;;4.72;3.08;;;24.70;77.90;;;;;;951603;147;27430;-75
2023/08/04 12:13:33;;;;;;;3.10;2.90;;;24.60;78.70;;;;;;955118;147;27341;-72
2023/08/04 12:15:59;;;;;;;3.12;2.83;;;24.50;80.10;;;;;;949541;146;27353;-72
2023/08/04 12:18:28;;;;;;;4.67;2.90;;;24.50;81.40;;;;;;953827;146;27398;-72
2023/08/04 12:20:56;;;;;;;4.75;2.90;;;24.40;81.10;;;;;;965722;144;27419;-75
2023/08/04 12:23:22;;;;;;;5.45;3.37;;;24.40;81.50;;;;;;965687;144;27351;-73
2023/08/04 12:25:48;;;;;;;5.15;3.15;;;24.40;82.30;;;;;;964066;147;28724;-73
2023/08/04 12:28:15;;;;;;;3.17;2.87;;;24.40;82.90;;;;;;963425;144;27424;-72
2023/08/04 12:30:41;;;;;;;10.63;3.35;;;24.40;84.10;;;;;;964148;144;27324;-72
2023/08/04 12:33:08;;;;;;;4.33;3.12;;;24.40;83.80;;;;;;965381;144;27332;-74
2023/08/04 12:35:35;;;;;;;3.00;2.80;;;24.40;84.30;;;;;;966576;144;27453;-72
2023/08/04 12:38:04;;;;;;;3.17;2.87;;;24.50;84.60;;;;;;962929;146;27392;-73
2023/08/04 12:40:28;;;;;;;3.45;2.95;;;24.50;83.80;;;;;;965213;146;27315;-73
2023/08/04 12:42:54;;;;;;;3.37;2.90;;;24.60;83.20;;;;;;962274;147;27347;-74
2023/08/04 12:45:21;;;;;;;3.25;2.83;;;24.60;83.70;;;;;;964825;146;27345;-73
2023/08/04 12:47:47;;;;;;;2.98;2.67;;;24.70;83.40;;;;;;962793;144;27424;-72
2023/08/04 12:50:14;;;;;;;3.85;3.05;;;24.70;83.90;;;;;;964803;146;27327;-74